createdAt,value
2018-05-25T00:00:20.056Z,74.27
2018-05-25T00:02:48.232Z,71.37
2018-05-25T00:05:17.875Z,71.27
2018-05-25T00:07:46.079Z,72.00
2018-05-25T00:10:14.312Z,75.03
2018-05-25T00:12:42.729Z,67.77
2018-05-25T00:15:11.679Z,71.70
2018-05-25T00:17:39.865Z,70.77
2018-05-25T00:20:08.102Z,70.70
2018-05-25T00:22:36.610Z,69.13
2018-05-25T00:25:04.886Z,68.43
2018-05-25T00:27:33.129Z,68.47
2018-05-25T00:30:01.362Z,77.07
2018-05-25T00:32:29.547Z,68.17
2018-05-25T00:34:57.800Z,70.70
2018-05-25T00:37:25.990Z,73.57
2018-05-25T00:39:54.168Z,72.00
2018-05-25T00:42:22.378Z,72.93
2018-05-25T00:44:51.320Z,75.07
2018-05-25T00:47:19.491Z,69.93
2018-05-25T00:49:47.689Z,72.87
2018-05-25T00:52:15.874Z,70.27
2018-05-25T00:55:02.640Z,79.03
2018-05-25T00:57:30.830Z,70.43
2018-05-25T00:59:59.005Z,69.80
2018-05-25T01:02:27.204Z,69.87
2018-05-25T01:04:55.422Z,73.00
2018-05-25T01:07:23.616Z,69.50
2018-05-25T01:09:51.831Z,71.63
2018-05-25T01:12:21.194Z,68.80
2018-05-25T01:14:49.365Z,69.67
2018-05-25T01:17:17.619Z,72.23
2018-05-25T01:19:46.632Z,68.57
2018-05-25T01:22:14.809Z,67.50
2018-05-25T01:24:43.012Z,71.77
2018-05-25T01:27:11.176Z,70.33
2018-05-25T01:29:39.341Z,68.73
2018-05-25T01:32:08.357Z,72.57
2018-05-25T01:34:36.562Z,72.67
2018-05-25T01:37:04.780Z,74.47
2018-05-25T01:39:33.013Z,73.43
2018-05-25T01:42:01.198Z,71.93
2018-05-25T01:44:29.495Z,71.67
2018-05-25T01:46:57.696Z,73.73
2018-05-25T01:49:25.876Z,69.00
2018-05-25T01:51:54.049Z,67.47
2018-05-25T01:54:22.307Z,73.70
2018-05-25T01:56:50.515Z,68.83
2018-05-25T01:59:18.716Z,70.50
2018-05-25T02:01:46.928Z,68.80
2018-05-25T02:04:15.182Z,68.03
2018-05-25T02:06:43.381Z,64.87
2018-05-25T02:09:11.576Z,72.13
2018-05-25T02:11:39.785Z,69.07
2018-05-25T02:14:08.060Z,70.77
2018-05-25T02:16:37.020Z,66.70
2018-05-25T02:19:05.217Z,65.57
2018-05-25T02:21:33.408Z,67.43
2018-05-25T02:24:01.680Z,69.60
2018-05-25T02:26:29.873Z,69.77
2018-05-25T02:28:58.043Z,65.57
2018-05-25T02:31:26.241Z,68.33
2018-05-25T02:33:54.437Z,68.77
2018-05-25T02:36:22.608Z,70.43
2018-05-25T02:38:50.827Z,66.93
2018-05-25T02:41:19.905Z,68.63
2018-05-25T02:43:48.084Z,70.17
2018-05-25T02:46:16.691Z,69.47
2018-05-25T02:48:45.072Z,67.90
2018-05-25T02:51:13.352Z,70.83
2018-05-25T02:53:41.551Z,66.57
2018-05-25T02:56:09.726Z,68.57
2018-05-25T02:58:37.916Z,65.37
2018-05-25T03:01:06.160Z,106.87
2018-05-25T03:03:34.337Z,69.60
2018-05-25T03:06:02.533Z,71.40
2018-05-25T03:08:30.734Z,68.57
2018-05-25T03:10:58.908Z,67.73
2018-05-25T03:13:27.097Z,73.17
2018-05-25T03:15:55.340Z,67.83
2018-05-25T03:18:23.512Z,70.00
2018-05-25T03:20:51.688Z,72.73
2018-05-25T03:23:19.886Z,69.60
2018-05-25T03:25:48.093Z,70.23
2018-05-25T03:28:16.261Z,70.87
2018-05-25T03:30:44.487Z,68.13
2018-05-25T03:33:12.674Z,71.23
2018-05-25T03:35:40.845Z,75.20
2018-05-25T03:38:09.048Z,73.07
2018-05-25T03:40:37.224Z,71.57
2018-05-25T03:43:05.461Z,74.37
2018-05-25T03:45:33.688Z,70.43
2018-05-25T03:48:01.875Z,71.57
2018-05-25T03:50:30.066Z,70.37
2018-05-25T03:52:58.296Z,77.77
2018-05-25T03:55:27.247Z,79.77
2018-05-25T03:57:55.436Z,80.33
2018-05-25T04:00:41.409Z,78.00
2018-05-25T04:03:09.595Z,75.50
2018-05-25T04:05:37.769Z,75.10
2018-05-25T04:08:05.985Z,74.30
2018-05-25T04:10:34.169Z,73.40
2018-05-25T04:13:03.381Z,76.73
2018-05-25T04:15:31.580Z,80.67
2018-05-25T04:17:59.747Z,77.40
2018-05-25T04:20:27.941Z,75.57
2018-05-25T04:22:56.151Z,76.23
2018-05-25T04:25:24.377Z,76.73
2018-05-25T04:27:52.576Z,75.40
2018-05-25T04:30:20.748Z,75.30
2018-05-25T04:32:48.939Z,74.07
2018-05-25T04:35:17.135Z,76.57
2018-05-25T04:37:45.328Z,77.37
2018-05-25T04:40:14.135Z,77.20
2018-05-25T04:42:42.342Z,73.57
2018-05-25T04:45:10.517Z,80.83
2018-05-25T04:47:38.739Z,84.67
2018-05-25T04:50:06.952Z,83.30
2018-05-25T04:52:35.271Z,84.20
2018-05-25T04:55:03.477Z,81.50
2018-05-25T04:57:31.692Z,74.07
2018-05-25T04:59:59.867Z,78.63
2018-05-25T05:02:28.065Z,78.70
2018-05-25T05:04:56.280Z,77.67
2018-05-25T05:07:25.308Z,74.83
2018-05-25T05:09:53.489Z,75.27
2018-05-25T05:12:21.698Z,78.63
2018-05-25T05:14:49.929Z,78.03
2018-05-25T05:17:18.075Z,82.27
2018-05-25T05:19:46.277Z,80.63
2018-05-25T05:22:14.447Z,77.43
2018-05-25T05:24:42.632Z,74.37
2018-05-25T05:27:10.829Z,79.67
2018-05-25T05:29:40.062Z,80.37
2018-05-25T05:32:08.282Z,81.03
2018-05-25T05:34:37.295Z,85.70
2018-05-25T05:37:05.542Z,91.17
2018-05-25T05:39:33.755Z,88.40
2018-05-25T05:42:01.947Z,89.77
2018-05-25T05:44:30.161Z,78.90
2018-05-25T05:46:58.390Z,83.43
2018-05-25T05:49:26.573Z,77.53
2018-05-25T05:51:54.746Z,80.90
2018-05-25T05:54:22.947Z,83.93
2018-05-25T05:56:51.257Z,75.73
2018-05-25T05:59:19.511Z,80.97
2018-05-25T06:01:47.694Z,77.03
2018-05-25T06:04:15.883Z,86.43
2018-05-25T06:06:44.089Z,84.40
2018-05-25T06:09:12.649Z,78.30
2018-05-25T06:11:40.885Z,78.90
2018-05-25T06:14:09.076Z,80.97
2018-05-25T06:16:37.249Z,81.93
2018-05-25T06:19:05.485Z,87.40
2018-05-25T06:21:34.252Z,78.30
2018-05-25T06:24:03.246Z,80.40
2018-05-25T06:26:31.468Z,79.83
2018-05-25T06:28:59.682Z,82.43
2018-05-25T06:31:28.648Z,82.87
2018-05-25T06:33:57.692Z,81.77
2018-05-25T06:36:26.660Z,80.60
2018-05-25T06:38:54.861Z,81.03
2018-05-25T06:41:23.037Z,71.70
2018-05-25T06:43:51.245Z,74.30
2018-05-25T06:46:20.325Z,76.27
2018-05-25T06:48:48.522Z,76.93
2018-05-25T06:51:16.717Z,75.13
2018-05-25T06:53:44.900Z,82.37
2018-05-25T06:56:13.087Z,77.37
2018-05-25T06:58:42.060Z,77.20
2018-05-25T07:01:10.232Z,98.20
2018-05-25T07:03:38.418Z,76.20
2018-05-25T07:06:06.695Z,75.33
2018-05-25T07:08:34.871Z,73.83
2018-05-25T07:11:03.050Z,64.83
2018-05-25T07:13:31.249Z,70.03
2018-05-25T07:15:59.432Z,72.40
2018-05-25T07:18:27.631Z,73.17
2018-05-25T07:20:55.837Z,74.27
2018-05-25T07:23:24.031Z,70.07
2018-05-25T07:25:52.969Z,75.87
2018-05-25T07:28:21.165Z,74.53
2018-05-25T07:30:49.337Z,71.67
2018-05-25T07:33:17.511Z,69.57
2018-05-25T07:35:45.707Z,74.43
2018-05-25T07:38:13.890Z,72.23
2018-05-25T07:40:42.065Z,77.90
2018-05-25T07:43:11.036Z,72.13
2018-05-25T07:45:39.240Z,69.30
2018-05-25T07:48:07.428Z,76.23
2018-05-25T07:50:35.617Z,76.83
2018-05-25T07:53:04.360Z,72.47
2018-05-25T07:55:32.579Z,77.57
2018-05-25T07:58:00.770Z,77.80
2018-05-25T08:00:28.941Z,80.30
2018-05-25T08:02:57.121Z,79.07
2018-05-25T08:05:25.309Z,72.90
2018-05-25T08:07:53.506Z,77.20
2018-05-25T08:10:21.682Z,76.53
2018-05-25T08:12:49.884Z,79.87
2018-05-25T08:15:18.077Z,76.87
2018-05-25T08:17:46.250Z,76.30
2018-05-25T08:20:14.947Z,73.97
2018-05-25T08:22:43.128Z,76.13
2018-05-25T08:25:11.300Z,72.17
2018-05-25T08:27:39.497Z,77.03
2018-05-25T08:30:08.080Z,71.43
2018-05-25T08:32:36.249Z,73.33
2018-05-25T08:35:04.459Z,74.33
2018-05-25T08:37:32.635Z,76.10
2018-05-25T08:40:01.562Z,71.27
2018-05-25T08:42:29.751Z,75.40
2018-05-25T08:44:58.541Z,80.50
2018-05-25T08:47:26.704Z,74.13
2018-05-25T08:49:54.901Z,74.83
2018-05-25T08:52:23.116Z,76.43
2018-05-25T08:54:51.271Z,76.87
2018-05-25T08:57:19.459Z,77.50
2018-05-25T08:59:47.653Z,78.97
2018-05-25T09:02:15.824Z,94.60
2018-05-25T09:04:44.797Z,80.83
2018-05-25T09:07:12.968Z,78.23
2018-05-25T09:09:41.348Z,82.87
2018-05-25T09:12:09.354Z,82.17
2018-05-25T09:14:37.519Z,79.67
2018-05-25T09:17:05.687Z,91.37
2018-05-25T09:19:33.877Z,90.80
2018-05-25T09:22:02.054Z,94.33
2018-05-25T09:24:30.262Z,90.27
2018-05-25T09:26:58.462Z,90.40
2018-05-25T09:29:26.880Z,87.47
2018-05-25T09:31:55.047Z,98.87
2018-05-25T09:34:23.295Z,99.63
2018-05-25T09:36:51.488Z,93.23
2018-05-25T09:39:19.674Z,93.80
2018-05-25T09:41:47.868Z,92.60
2018-05-25T09:44:16.043Z,93.93
2018-05-25T09:46:44.217Z,90.33
2018-05-25T09:49:12.403Z,85.07
2018-05-25T09:51:40.578Z,81.33
2018-05-25T09:54:09.325Z,89.33
2018-05-25T09:56:38.339Z,86.40
2018-05-25T09:59:06.599Z,82.23
2018-05-25T10:01:35.496Z,84.37
2018-05-25T10:04:03.697Z,87.13
2018-05-25T10:06:31.937Z,83.00
2018-05-25T10:09:00.113Z,82.20
2018-05-25T10:11:28.298Z,83.10
2018-05-25T10:13:56.461Z,80.23
2018-05-25T10:16:24.650Z,83.10
2018-05-25T10:18:52.842Z,84.37
2018-05-25T10:21:21.024Z,80.97
2018-05-25T10:23:49.196Z,78.77
2018-05-25T10:26:17.396Z,82.63
2018-05-25T10:28:45.581Z,75.63
2018-05-25T10:31:13.790Z,82.13
2018-05-25T10:33:42.003Z,76.63
2018-05-25T10:36:10.181Z,82.17
2018-05-25T10:38:38.436Z,79.13
2018-05-25T10:41:06.685Z,79.30
2018-05-25T10:43:34.865Z,80.77
2018-05-25T10:46:03.032Z,80.77
2018-05-25T10:48:32.441Z,81.97
2018-05-25T10:51:00.665Z,86.67
2018-05-25T10:53:28.878Z,87.27
2018-05-25T10:55:57.870Z,85.90
2018-05-25T10:58:26.821Z,83.53
2018-05-25T11:00:54.983Z,125.03
2018-05-25T11:03:23.171Z,85.43
2018-05-25T11:05:51.330Z,88.57
2018-05-25T11:08:19.497Z,88.67
2018-05-25T11:10:47.703Z,84.37
2018-05-25T11:13:15.870Z,99.53
2018-05-25T11:15:44.083Z,86.93
2018-05-25T11:18:12.267Z,88.93
2018-05-25T11:20:40.477Z,93.67
2018-05-25T11:23:08.677Z,96.67
2018-05-25T11:25:36.924Z,88.80
2018-05-25T11:28:06.007Z,87.60
2018-05-25T11:30:34.193Z,89.83
2018-05-25T11:33:02.388Z,88.27
2018-05-25T11:35:30.568Z,90.20
2018-05-25T11:37:58.742Z,98.80
2018-05-25T11:40:26.930Z,92.83
2018-05-25T11:42:55.404Z,87.70
2018-05-25T11:45:23.569Z,91.33
2018-05-25T11:47:51.747Z,94.03
2018-05-25T11:50:19.916Z,89.53
2018-05-25T11:52:48.086Z,86.40
2018-05-25T11:55:16.263Z,97.97
2018-05-25T11:57:45.311Z,88.40
2018-05-25T12:00:13.482Z,91.93
2018-05-25T12:02:41.670Z,94.13
2018-05-25T12:05:10.352Z,96.57
2018-05-25T12:07:38.543Z,97.10
2018-05-25T12:10:06.797Z,95.33
2018-05-25T12:12:34.966Z,100.87
2018-05-25T12:15:03.139Z,98.87
2018-05-25T12:17:31.342Z,95.87
2018-05-25T12:19:59.517Z,95.67
2018-05-25T12:22:27.695Z,102.83
2018-05-25T12:24:55.889Z,102.57
2018-05-25T12:27:24.060Z,96.60
2018-05-25T12:29:52.225Z,98.13
2018-05-25T12:32:20.424Z,102.37
2018-05-25T12:34:48.612Z,106.00
2018-05-25T12:37:16.793Z,99.47
2018-05-25T12:39:45.768Z,107.47
2018-05-25T12:42:13.933Z,99.57
2018-05-25T12:44:59.895Z,112.03
2018-05-25T12:47:28.076Z,105.93
2018-05-25T12:49:56.243Z,117.17
2018-05-25T12:52:24.450Z,98.13
2018-05-25T12:54:52.618Z,105.83
2018-05-25T12:57:20.788Z,131.30
2018-05-25T12:59:49.017Z,121.43
2018-05-25T13:02:17.192Z,123.43
2018-05-25T13:04:45.392Z,115.50
2018-05-25T13:07:13.596Z,127.30
2018-05-25T13:09:41.777Z,116.27
2018-05-25T13:12:09.955Z,107.13
2018-05-25T13:14:38.152Z,137.90
2018-05-25T13:17:07.108Z,107.30
2018-05-25T13:19:35.268Z,102.43
2018-05-25T13:22:03.461Z,129.17
2018-05-25T13:24:31.635Z,128.57
2018-05-25T13:26:59.816Z,139.23
2018-05-25T13:29:28.011Z,136.53
2018-05-25T13:31:56.186Z,144.13
2018-05-25T13:34:25.126Z,135.67
2018-05-25T13:36:53.312Z,142.30
2018-05-25T13:39:21.511Z,151.67
2018-05-25T13:41:49.686Z,141.50
2018-05-25T13:44:17.895Z,137.77
2018-05-25T13:46:46.074Z,137.60
2018-05-25T13:49:14.261Z,147.30
2018-05-25T13:51:42.458Z,138.67
2018-05-25T13:54:10.928Z,153.47
2018-05-25T13:56:39.113Z,129.27
2018-05-25T13:59:07.312Z,120.80
2018-05-25T14:01:35.490Z,119.97
2018-05-25T14:04:03.685Z,115.87
2018-05-25T14:06:31.878Z,118.33
2018-05-25T14:09:00.052Z,103.20
2018-05-25T14:11:28.263Z,103.13
2018-05-25T14:13:56.443Z,102.77
2018-05-25T14:16:24.615Z,131.90
2018-05-25T14:18:52.800Z,122.73
2018-05-25T14:21:20.971Z,123.97
2018-05-25T14:23:49.139Z,131.23
2018-05-25T14:26:17.371Z,112.27
2018-05-25T14:28:45.570Z,124.87
2018-05-25T14:31:13.748Z,113.90
2018-05-25T14:33:41.929Z,115.23
2018-05-25T14:36:10.129Z,118.53
2018-05-25T14:38:38.302Z,114.83
2018-05-25T14:41:06.512Z,116.57
2018-05-25T14:43:35.456Z,123.10
2018-05-25T14:46:03.678Z,123.97
2018-05-25T14:48:31.890Z,116.40
2018-05-25T14:51:00.067Z,120.87
2018-05-25T14:53:28.238Z,126.50
2018-05-25T14:55:56.441Z,125.43
2018-05-25T14:58:25.631Z,128.90
2018-05-25T15:00:53.801Z,178.83
2018-05-25T15:03:22.007Z,131.07
2018-05-25T15:05:50.198Z,121.17
2018-05-25T15:08:18.780Z,123.63
2018-05-25T15:10:47.776Z,123.40
2018-05-25T15:13:15.956Z,134.00
2018-05-25T15:15:44.191Z,135.37
2018-05-25T15:18:12.362Z,123.67
2018-05-25T15:20:40.529Z,123.67
2018-05-25T15:23:08.712Z,138.27
2018-05-25T15:25:36.930Z,131.70
2018-05-25T15:28:05.140Z,120.37
2018-05-25T15:30:33.312Z,139.73
2018-05-25T15:33:01.502Z,134.57
2018-05-25T15:35:29.715Z,152.00
2018-05-25T15:37:57.903Z,125.53
2018-05-25T15:40:26.100Z,140.77
2018-05-25T15:42:54.274Z,119.57
2018-05-25T15:45:22.449Z,125.47
2018-05-25T15:47:50.648Z,127.93
2018-05-25T15:50:18.820Z,124.07
2018-05-25T15:52:47.081Z,118.87
2018-05-25T15:55:16.231Z,117.60
2018-05-25T15:57:44.453Z,114.97
2018-05-25T16:00:12.695Z,115.63
2018-05-25T16:02:40.903Z,124.73
2018-05-25T16:05:09.079Z,113.30
2018-05-25T16:07:37.288Z,111.93
2018-05-25T16:10:05.507Z,109.97
2018-05-25T16:12:33.717Z,106.80
2018-05-25T16:15:01.918Z,105.67
2018-05-25T16:17:30.098Z,108.20
2018-05-25T16:19:58.304Z,101.40
2018-05-25T16:22:26.479Z,108.57
2018-05-25T16:24:54.699Z,105.07
2018-05-25T16:27:22.921Z,97.67
2018-05-25T16:29:51.845Z,96.67
2018-05-25T16:32:20.040Z,103.97
2018-05-25T16:34:48.244Z,101.10
2018-05-25T16:37:17.211Z,96.63
2018-05-25T16:39:46.259Z,101.90
2018-05-25T16:42:14.458Z,93.60
2018-05-25T16:44:42.688Z,106.77
2018-05-25T16:47:11.623Z,102.93
2018-05-25T16:49:39.828Z,84.90
2018-05-25T16:52:08.974Z,89.70
2018-05-25T16:54:37.151Z,95.47
2018-05-25T16:57:05.337Z,95.53
2018-05-25T16:59:33.535Z,93.70
2018-05-25T17:02:01.726Z,98.00
2018-05-25T17:04:29.937Z,97.70
2018-05-25T17:06:58.175Z,102.30
2018-05-25T17:09:26.343Z,100.93
2018-05-25T17:11:55.468Z,104.37
2018-05-25T17:14:24.408Z,107.20
2018-05-25T17:16:52.651Z,99.47
2018-05-25T17:19:20.854Z,104.80
2018-05-25T17:21:49.026Z,112.07
2018-05-25T17:24:17.277Z,103.73
2018-05-25T17:26:45.492Z,108.90
2018-05-25T17:29:13.683Z,107.70
2018-05-25T17:31:41.910Z,114.63
2018-05-25T17:34:10.107Z,102.23
2018-05-25T17:36:38.619Z,102.27
2018-05-25T17:39:06.922Z,120.30
2018-05-25T17:41:35.139Z,112.77
2018-05-25T17:44:03.359Z,115.97
2018-05-25T17:46:31.589Z,116.43
2018-05-25T17:48:59.767Z,114.53
2018-05-25T17:51:27.960Z,110.90
2018-05-25T17:53:56.154Z,113.90
2018-05-25T17:56:24.343Z,114.67
2018-05-25T17:58:52.627Z,121.37
2018-05-25T18:01:22.635Z,120.30
2018-05-25T18:03:51.162Z,119.60
2018-05-25T18:06:19.984Z,126.93
2018-05-25T18:08:48.267Z,115.33
2018-05-25T18:11:17.305Z,127.33
2018-05-25T18:13:46.023Z,122.80
2018-05-25T18:16:14.835Z,133.50
2018-05-25T18:18:43.540Z,120.17
2018-05-25T18:21:12.566Z,135.00
2018-05-25T18:23:40.792Z,119.87
2018-05-25T18:26:10.608Z,127.53
2018-05-25T18:28:39.569Z,134.13
2018-05-25T18:31:09.261Z,138.90
2018-05-25T18:33:38.694Z,142.27
2018-05-25T18:36:08.803Z,133.07
2018-05-25T18:38:39.241Z,151.90
2018-05-25T18:41:08.145Z,146.67
2018-05-25T18:43:37.365Z,144.70
2018-05-25T18:46:07.483Z,135.37
2018-05-25T18:48:36.443Z,134.23
2018-05-25T18:51:06.079Z,154.23
2018-05-25T18:53:35.786Z,142.40
2018-05-25T18:56:04.109Z,138.70
2018-05-25T18:58:34.393Z,140.43
2018-05-25T19:01:02.801Z,160.90
2018-05-25T19:03:31.370Z,148.13
2018-05-25T19:06:00.451Z,138.83
2018-05-25T19:08:28.903Z,130.93
2018-05-25T19:10:58.618Z,142.73
2018-05-25T19:13:27.964Z,145.03
2018-05-25T19:15:58.115Z,145.57
2018-05-25T19:18:27.785Z,144.27
2018-05-25T19:20:56.890Z,144.70
2018-05-25T19:23:25.146Z,136.00
2018-05-25T19:25:54.077Z,139.50
2018-05-25T19:28:22.277Z,145.03
2018-05-25T19:30:50.680Z,136.27
2018-05-25T19:33:20.297Z,172.17
2018-05-25T19:35:48.509Z,158.23
2018-05-25T19:38:17.584Z,168.30
2018-05-25T19:40:46.541Z,187.17
2018-05-25T19:43:20.606Z,190.00
2018-05-25T19:45:49.085Z,182.67
2018-05-25T19:48:17.289Z,178.63
2018-05-25T19:50:45.503Z,173.17
2018-05-25T19:53:13.693Z,170.70
2018-05-25T19:55:41.913Z,151.13
2018-05-25T19:58:10.207Z,156.00
2018-05-25T20:00:38.427Z,130.20
2018-05-25T20:03:07.405Z,146.07
2018-05-25T20:05:37.183Z,141.30
2018-05-25T20:08:05.561Z,144.43
2018-05-25T20:10:33.875Z,164.67
2018-05-25T20:13:02.103Z,157.23
2018-05-25T20:15:30.287Z,155.27
2018-05-25T20:17:58.479Z,177.40
2018-05-25T20:20:27.659Z,158.00
2018-05-25T20:22:56.723Z,171.87
2018-05-25T20:25:24.973Z,166.73
2018-05-25T20:27:53.958Z,175.73
2018-05-25T20:30:22.941Z,171.50
2018-05-25T20:35:36.481Z,181.57
2018-05-25T20:38:07.232Z,189.47
2018-05-25T20:43:15.543Z,186.50
2018-05-25T20:45:52.866Z,188.37
2018-05-25T20:48:23.001Z,167.20
2018-05-25T20:50:52.183Z,174.80
2018-05-25T20:53:21.270Z,165.77
2018-05-25T20:55:55.124Z,173.30
2018-05-25T20:58:23.322Z,165.07
2018-05-25T21:00:54.688Z,170.37
2018-05-25T21:03:34.403Z,175.47
2018-05-25T21:06:20.161Z,186.50
2018-05-25T21:08:54.130Z,177.90
2018-05-25T21:11:27.673Z,187.43
2018-05-25T21:14:17.513Z,168.40
2018-05-25T21:16:56.095Z,181.43
2018-05-25T21:19:29.901Z,162.90
2018-05-25T21:21:58.992Z,180.03
2018-05-25T21:24:30.217Z,188.50
2018-05-25T21:26:58.389Z,175.70
2018-05-25T21:32:48.799Z,179.70
2018-05-25T21:35:18.408Z,184.33
2018-05-25T21:37:52.068Z,173.47
2018-05-25T21:40:26.183Z,177.67
2018-05-25T21:43:03.396Z,175.93
2018-05-25T21:45:33.675Z,169.80
2018-05-25T21:48:14.876Z,176.43
2018-05-25T21:50:48.063Z,172.50
2018-05-25T21:53:22.100Z,176.40
2018-05-25T21:58:33.613Z,163.70
2018-05-25T22:01:04.511Z,172.63
2018-05-25T22:03:36.878Z,177.13
2018-05-25T22:06:07.625Z,180.33
2018-05-25T22:08:48.688Z,172.27
2018-05-25T22:11:16.889Z,169.67
2018-05-25T22:13:46.001Z,170.00
2018-05-25T22:16:14.999Z,173.47
2018-05-25T22:18:43.953Z,176.70
2018-05-25T22:21:12.142Z,189.90
2018-05-25T22:23:40.489Z,168.10
2018-05-25T22:26:08.711Z,201.20
2018-05-25T22:28:36.956Z,175.47
2018-05-25T22:31:05.184Z,194.20
2018-05-25T22:33:33.390Z,179.87
2018-05-25T22:36:02.669Z,184.10
2018-05-25T22:38:30.917Z,200.73
2018-05-25T22:40:59.117Z,169.10
2018-05-25T22:43:45.110Z,178.60
2018-05-25T22:46:30.921Z,201.80
2018-05-25T22:49:16.932Z,198.27
2018-05-25T22:52:02.776Z,224.73
2018-05-25T22:54:37.242Z,202.40
2018-05-25T22:57:05.421Z,195.77
2018-05-25T22:59:33.603Z,224.33
2018-05-25T23:02:02.666Z,185.43
2018-05-25T23:04:30.882Z,218.50
2018-05-25T23:06:59.905Z,223.03
2018-05-25T23:09:28.897Z,190.50
2018-05-25T23:11:57.587Z,190.03
2018-05-25T23:14:26.586Z,213.90
2018-05-25T23:16:54.785Z,208.90
2018-05-25T23:19:22.981Z,204.63
2018-05-25T23:21:51.205Z,202.30
2018-05-25T23:24:20.027Z,209.67
2018-05-25T23:26:49.318Z,192.50
2018-05-25T23:29:17.497Z,222.80
2018-05-25T23:31:45.701Z,207.70
2018-05-25T23:34:13.876Z,193.50
2018-05-25T23:36:42.074Z,187.83
2018-05-25T23:39:11.958Z,191.37
2018-05-25T23:41:40.153Z,183.57
2018-05-25T23:44:08.331Z,209.97
2018-05-25T23:46:36.576Z,189.30
2018-05-25T23:49:04.748Z,188.17
2018-05-25T23:51:32.933Z,176.43
2018-05-25T23:54:01.142Z,182.17
2018-05-25T23:56:29.324Z,194.40
2018-05-25T23:58:57.501Z,190.50
